Farley, Iowa
Current Conditions -  °F | °C
As of 6:01 PM on Monday 22 Dec 2014 (Local Time) from KDBQ Reporting Station
Haze Haze  
Wind Chill: 27°   Ceiling: 200
Heat Index: 35°   Visibility: 0.75mi
Dew Point: 34°   Wind: 12mph
Humidity: 96%   Direction: 120°ESE
Pressure: 29.57"   Gusts: NA
Location:  42.44°N, 91.01°W
Report Text: KDBQ 230001Z 12010KT 3/4SM R36/3500V4000FT BR VV002 02/01 A2957 RMK AO2 T00170011
Loading
Personal Weather Stations






























Interactive Weather Map New forecast layout! Learn more

10-Day Weather Forecast

Advertisements
Track Severe Weather on mobile